sensor_id;sensor_type;location;lat;lon;timestamp;temperature;humidity
44069;DHT22;29738;51.234;5.484;2022-10-31T00:01:10;14.90;99.90
44069;DHT22;29738;51.234;5.484;2022-10-31T00:03:36;14.80;99.90
44069;DHT22;29738;51.234;5.484;2022-10-31T00:06:01;14.60;99.90
44069;DHT22;29738;51.234;5.484;2022-10-31T00:08:27;14.40;99.90
44069;DHT22;29738;51.234;5.484;2022-10-31T00:10:53;14.10;99.90
44069;DHT22;29738;51.234;5.484;2022-10-31T00:13:19;14.20;99.90
44069;DHT22;29738;51.234;5.484;2022-10-31T00:15:44;14.30;99.90
44069;DHT22;29738;51.234;5.484;2022-10-31T00:18:10;14.50;99.90
44069;DHT22;29738;51.234;5.484;2022-10-31T00:20:37;14.50;99.90
44069;DHT22;29738;51.234;5.484;2022-10-31T00:23:04;14.60;99.90
44069;DHT22;29738;51.234;5.484;2022-10-31T00:25:34;14.50;99.90
44069;DHT22;29738;51.234;5.484;2022-10-31T00:28:01;14.50;99.90
44069;DHT22;29738;51.234;5.484;2022-10-31T00:30:27;14.40;99.90
44069;DHT22;29738;51.234;5.484;2022-10-31T00:32:53;14.10;99.90
44069;DHT22;29738;51.234;5.484;2022-10-31T00:35:19;13.90;99.90
44069;DHT22;29738;51.234;5.484;2022-10-31T00:37:44;14.10;99.90
44069;DHT22;29738;51.234;5.484;2022-10-31T00:40:11;14.20;99.90
44069;DHT22;29738;51.234;5.484;2022-10-31T00:42:36;14.00;99.90
44069;DHT22;29738;51.234;5.484;2022-10-31T00:45:03;14.10;99.90
44069;DHT22;29738;51.234;5.484;2022-10-31T00:47:28;14.10;99.90
44069;DHT22;29738;51.234;5.484;2022-10-31T00:49:54;14.20;99.90
44069;DHT22;29738;51.234;5.484;2022-10-31T00:52:20;14.20;99.90
44069;DHT22;29738;51.234;5.484;2022-10-31T00:54:45;14.50;99.90
44069;DHT22;29738;51.234;5.484;2022-10-31T00:57:11;14.60;99.90
44069;DHT22;29738;51.234;5.484;2022-10-31T00:59:37;14.60;99.90
44069;DHT22;29738;51.234;5.484;2022-10-31T01:02:03;14.60;99.90
44069;DHT22;29738;51.234;5.484;2022-10-31T01:04:28;14.70;99.90
44069;DHT22;29738;51.234;5.484;2022-10-31T01:06:54;14.70;99.90
44069;DHT22;29738;51.234;5.484;2022-10-31T01:09:20;14.50;99.90
44069;DHT22;29738;51.234;5.484;2022-10-31T01:11:45;14.10;99.90
44069;DHT22;29738;51.234;5.484;2022-10-31T01:14:11;13.90;99.90
44069;DHT22;29738;51.234;5.484;2022-10-31T01:16:37;14.00;99.90
44069;DHT22;29738;51.234;5.484;2022-10-31T01:19:03;14.30;99.90
44069;DHT22;29738;51.234;5.484;2022-10-31T01:21:29;14.30;99.90
44069;DHT22;29738;51.234;5.484;2022-10-31T01:23:56;14.40;99.90
44069;DHT22;29738;51.234;5.484;2022-10-31T01:26:26;14.40;99.90
44069;DHT22;29738;51.234;5.484;2022-10-31T01:28:58;14.30;99.90
44069;DHT22;29738;51.234;5.484;2022-10-31T01:31:26;14.20;99.90
44069;DHT22;29738;51.234;5.484;2022-10-31T01:33:52;14.20;99.90
44069;DHT22;29738;51.234;5.484;2022-10-31T01:36:21;14.00;99.90
44069;DHT22;29738;51.234;5.484;2022-10-31T01:38:48;13.80;99.90
44069;DHT22;29738;51.234;5.484;2022-10-31T01:41:17;13.60;99.90
44069;DHT22;29738;51.234;5.484;2022-10-31T01:44:01;13.40;99.90
44069;DHT22;29738;51.234;5.484;2022-10-31T01:46:31;13.60;99.90
44069;DHT22;29738;51.234;5.484;2022-10-31T01:49:04;13.70;99.90
44069;DHT22;29738;51.234;5.484;2022-10-31T01:51:34;13.70;99.90
44069;DHT22;29738;51.234;5.484;2022-10-31T01:54:09;13.80;99.90
44069;DHT22;29738;51.234;5.484;2022-10-31T01:56:39;13.80;99.90
44069;DHT22;29738;51.234;5.484;2022-10-31T01:59:09;13.70;99.90
44069;DHT22;29738;51.234;5.484;2022-10-31T02:01:37;13.60;99.90
44069;DHT22;29738;51.234;5.484;2022-10-31T02:04:03;13.60;99.90
44069;DHT22;29738;51.234;5.484;2022-10-31T02:06:49;13.60;99.90
44069;DHT22;29738;51.234;5.484;2022-10-31T02:09:17;13.60;99.90
44069;DHT22;29738;51.234;5.484;2022-10-31T02:11:49;13.70;99.90
44069;DHT22;29738;51.234;5.484;2022-10-31T02:14:16;13.60;99.90
44069;DHT22;29738;51.234;5.484;2022-10-31T02:16:42;13.60;99.90
44069;DHT22;29738;51.234;5.484;2022-10-31T02:19:11;13.50;99.90
44069;DHT22;29738;51.234;5.484;2022-10-31T02:21:55;13.50;99.90
44069;DHT22;29738;51.234;5.484;2022-10-31T02:24:46;13.50;99.90
44069;DHT22;29738;51.234;5.484;2022-10-31T02:30:18;13.50;99.90
44069;DHT22;29738;51.234;5.484;2022-10-31T02:33:10;13.40;99.90
44069;DHT22;29738;51.234;5.484;2022-10-31T02:36:04;13.40;99.90
44069;DHT22;29738;51.234;5.484;2022-10-31T02:38:38;13.30;99.90
44069;DHT22;29738;51.234;5.484;2022-10-31T02:44:02;13.10;99.90
44069;DHT22;29738;51.234;5.484;2022-10-31T02:49:00;12.80;99.90
44069;DHT22;29738;51.234;5.484;2022-10-31T02:51:28;12.70;99.90
44069;DHT22;29738;51.234;5.484;2022-10-31T02:53:54;12.80;99.90
44069;DHT22;29738;51.234;5.484;2022-10-31T02:56:20;12.70;99.90
44069;DHT22;29738;51.234;5.484;2022-10-31T02:58:51;12.80;99.90
44069;DHT22;29738;51.234;5.484;2022-10-31T03:01:36;12.70;99.90
44069;DHT22;29738;51.234;5.484;2022-10-31T03:06:48;13.00;99.90
44069;DHT22;29738;51.234;5.484;2022-10-31T03:09:19;13.10;99.90
44069;DHT22;29738;51.234;5.484;2022-10-31T03:14:41;13.10;99.90
44069;DHT22;29738;51.234;5.484;2022-10-31T03:17:14;12.90;99.90
44069;DHT22;29738;51.234;5.484;2022-10-31T03:19:44;12.80;99.90
44069;DHT22;29738;51.234;5.484;2022-10-31T03:22:21;12.90;99.90
44069;DHT22;29738;51.234;5.484;2022-10-31T03:24:48;12.90;99.90
44069;DHT22;29738;51.234;5.484;2022-10-31T03:27:18;12.90;99.90
44069;DHT22;29738;51.234;5.484;2022-10-31T03:29:47;12.70;99.90
44069;DHT22;29738;51.234;5.484;2022-10-31T03:32:31;12.50;99.90
44069;DHT22;29738;51.234;5.484;2022-10-31T03:35:00;12.20;99.90
44069;DHT22;29738;51.234;5.484;2022-10-31T03:37:28;12.00;99.90
44069;DHT22;29738;51.234;5.484;2022-10-31T03:39:55;11.70;99.90
44069;DHT22;29738;51.234;5.484;2022-10-31T03:42:25;11.40;99.90
44069;DHT22;29738;51.234;5.484;2022-10-31T03:45:05;11.40;99.90
44069;DHT22;29738;51.234;5.484;2022-10-31T03:47:32;11.50;99.90
44069;DHT22;29738;51.234;5.484;2022-10-31T03:49:59;11.70;99.90
44069;DHT22;29738;51.234;5.484;2022-10-31T03:52:33;11.90;99.90
44069;DHT22;29738;51.234;5.484;2022-10-31T03:55:12;12.00;99.90
44069;DHT22;29738;51.234;5.484;2022-10-31T03:57:41;11.90;99.90
44069;DHT22;29738;51.234;5.484;2022-10-31T04:00:11;11.90;99.90
44069;DHT22;29738;51.234;5.484;2022-10-31T04:02:49;11.90;99.90
44069;DHT22;29738;51.234;5.484;2022-10-31T04:05:17;11.90;99.90
44069;DHT22;29738;51.234;5.484;2022-10-31T04:07:46;12.30;99.90
44069;DHT22;29738;51.234;5.484;2022-10-31T04:10:16;12.50;99.90
44069;DHT22;29738;51.234;5.484;2022-10-31T04:12:44;12.50;99.90
44069;DHT22;29738;51.234;5.484;2022-10-31T04:15:14;12.30;99.90
44069;DHT22;29738;51.234;5.484;2022-10-31T04:17:42;12.50;99.90
44069;DHT22;29738;51.234;5.484;2022-10-31T04:20:09;12.50;99.90
44069;DHT22;29738;51.234;5.484;2022-10-31T04:22:35;12.40;99.90
44069;DHT22;29738;51.234;5.484;2022-10-31T04:25:01;12.50;99.90
44069;DHT22;29738;51.234;5.484;2022-10-31T04:27:27;12.60;99.90
44069;DHT22;29738;51.234;5.484;2022-10-31T04:29:53;12.70;99.90
44069;DHT22;29738;51.234;5.484;2022-10-31T04:32:18;12.80;99.90
44069;DHT22;29738;51.234;5.484;2022-10-31T04:34:44;12.80;99.90
44069;DHT22;29738;51.234;5.484;2022-10-31T04:37:10;12.90;99.90
44069;DHT22;29738;51.234;5.484;2022-10-31T04:39:36;12.90;99.90
44069;DHT22;29738;51.234;5.484;2022-10-31T04:42:01;12.90;99.90
44069;DHT22;29738;51.234;5.484;2022-10-31T04:44:27;12.70;99.90
44069;DHT22;29738;51.234;5.484;2022-10-31T04:46:53;12.60;99.90
44069;DHT22;29738;51.234;5.484;2022-10-31T04:49:18;12.40;99.90
44069;DHT22;29738;51.234;5.484;2022-10-31T04:51:44;12.20;99.90
44069;DHT22;29738;51.234;5.484;2022-10-31T04:54:10;11.90;99.90
44069;DHT22;29738;51.234;5.484;2022-10-31T04:56:36;11.90;99.90
44069;DHT22;29738;51.234;5.484;2022-10-31T04:59:02;12.00;99.90
44069;DHT22;29738;51.234;5.484;2022-10-31T05:01:27;12.00;99.90
44069;DHT22;29738;51.234;5.484;2022-10-31T05:03:53;12.00;99.90
44069;DHT22;29738;51.234;5.484;2022-10-31T05:06:19;11.90;99.90
44069;DHT22;29738;51.234;5.484;2022-10-31T05:08:45;12.10;99.90
44069;DHT22;29738;51.234;5.484;2022-10-31T05:11:10;12.10;99.90
44069;DHT22;29738;51.234;5.484;2022-10-31T05:13:36;12.10;99.90
44069;DHT22;29738;51.234;5.484;2022-10-31T05:16:02;12.20;99.90
44069;DHT22;29738;51.234;5.484;2022-10-31T05:18:28;12.20;99.90
44069;DHT22;29738;51.234;5.484;2022-10-31T05:20:54;12.20;99.90
44069;DHT22;29738;51.234;5.484;2022-10-31T05:23:20;12.20;99.90
44069;DHT22;29738;51.234;5.484;2022-10-31T05:25:45;12.20;99.90
44069;DHT22;29738;51.234;5.484;2022-10-31T05:28:11;12.10;99.90
44069;DHT22;29738;51.234;5.484;2022-10-31T05:30:37;12.00;99.90
44069;DHT22;29738;51.234;5.484;2022-10-31T05:33:03;11.90;99.90
44069;DHT22;29738;51.234;5.484;2022-10-31T05:35:31;11.80;99.90
44069;DHT22;29738;51.234;5.484;2022-10-31T05:37:58;11.80;99.90
44069;DHT22;29738;51.234;5.484;2022-10-31T05:40:24;11.90;99.90
44069;DHT22;29738;51.234;5.484;2022-10-31T05:42:51;12.00;99.90
44069;DHT22;29738;51.234;5.484;2022-10-31T05:45:19;12.00;99.90
44069;DHT22;29738;51.234;5.484;2022-10-31T05:47:59;11.90;99.90
44069;DHT22;29738;51.234;5.484;2022-10-31T05:50:27;11.90;99.90
44069;DHT22;29738;51.234;5.484;2022-10-31T05:52:57;11.90;99.90
44069;DHT22;29738;51.234;5.484;2022-10-31T05:55:23;11.80;99.90
44069;DHT22;29738;51.234;5.484;2022-10-31T05:57:51;11.70;99.90
44069;DHT22;29738;51.234;5.484;2022-10-31T06:00:18;11.70;99.90
44069;DHT22;29738;51.234;5.484;2022-10-31T06:02:44;11.60;99.90
44069;DHT22;29738;51.234;5.484;2022-10-31T06:05:10;11.60;99.90
44069;DHT22;29738;51.234;5.484;2022-10-31T06:07:36;11.30;99.90
44069;DHT22;29738;51.234;5.484;2022-10-31T06:10:04;11.10;99.90
44069;DHT22;29738;51.234;5.484;2022-10-31T06:12:30;11.00;99.90
44069;DHT22;29738;51.234;5.484;2022-10-31T06:14:56;11.00;99.90
44069;DHT22;29738;51.234;5.484;2022-10-31T06:17:21;10.90;99.90
44069;DHT22;29738;51.234;5.484;2022-10-31T06:19:47;11.00;99.90
44069;DHT22;29738;51.234;5.484;2022-10-31T06:22:13;10.90;99.90
44069;DHT22;29738;51.234;5.484;2022-10-31T06:24:39;11.10;99.90
44069;DHT22;29738;51.234;5.484;2022-10-31T06:27:05;11.20;99.90
44069;DHT22;29738;51.234;5.484;2022-10-31T06:29:31;11.00;99.90
44069;DHT22;29738;51.234;5.484;2022-10-31T06:31:57;11.10;99.90
44069;DHT22;29738;51.234;5.484;2022-10-31T06:34:22;11.20;99.90
44069;DHT22;29738;51.234;5.484;2022-10-31T06:36:48;11.40;99.90
44069;DHT22;29738;51.234;5.484;2022-10-31T06:39:14;11.40;99.90
44069;DHT22;29738;51.234;5.484;2022-10-31T06:41:40;11.40;99.90
44069;DHT22;29738;51.234;5.484;2022-10-31T06:44:07;11.40;99.90
44069;DHT22;29738;51.234;5.484;2022-10-31T06:46:33;11.40;99.90
44069;DHT22;29738;51.234;5.484;2022-10-31T06:48:59;11.50;99.90
44069;DHT22;29738;51.234;5.484;2022-10-31T06:51:25;11.60;99.90
44069;DHT22;29738;51.234;5.484;2022-10-31T06:53:51;11.60;99.90
44069;DHT22;29738;51.234;5.484;2022-10-31T06:56:17;11.70;99.90
44069;DHT22;29738;51.234;5.484;2022-10-31T06:58:42;11.80;99.90
44069;DHT22;29738;51.234;5.484;2022-10-31T07:01:08;11.80;99.90
44069;DHT22;29738;51.234;5.484;2022-10-31T07:03:34;11.70;99.90
44069;DHT22;29738;51.234;5.484;2022-10-31T07:06:00;11.70;99.90
44069;DHT22;29738;51.234;5.484;2022-10-31T07:08:26;11.50;99.90
44069;DHT22;29738;51.234;5.484;2022-10-31T07:10:54;11.40;99.90
44069;DHT22;29738;51.234;5.484;2022-10-31T07:13:20;11.40;99.90
44069;DHT22;29738;51.234;5.484;2022-10-31T07:15:52;11.30;99.90
44069;DHT22;29738;51.234;5.484;2022-10-31T07:18:19;11.20;99.90
44069;DHT22;29738;51.234;5.484;2022-10-31T07:20:45;11.20;99.90
44069;DHT22;29738;51.234;5.484;2022-10-31T07:23:11;11.40;99.90
44069;DHT22;29738;51.234;5.484;2022-10-31T07:25:40;11.50;99.90
44069;DHT22;29738;51.234;5.484;2022-10-31T07:28:06;11.70;99.90
44069;DHT22;29738;51.234;5.484;2022-10-31T07:30:32;11.60;99.90
44069;DHT22;29738;51.234;5.484;2022-10-31T07:32:58;11.60;99.90
44069;DHT22;29738;51.234;5.484;2022-10-31T07:35:26;11.60;99.90
44069;DHT22;29738;51.234;5.484;2022-10-31T07:37:52;11.60;99.90
44069;DHT22;29738;51.234;5.484;2022-10-31T07:40:19;11.70;99.90
44069;DHT22;29738;51.234;5.484;2022-10-31T07:42:46;11.80;99.90
44069;DHT22;29738;51.234;5.484;2022-10-31T07:45:14;11.80;99.90
44069;DHT22;29738;51.234;5.484;2022-10-31T07:47:45;11.90;99.90
44069;DHT22;29738;51.234;5.484;2022-10-31T07:50:16;12.00;99.90
44069;DHT22;29738;51.234;5.484;2022-10-31T07:52:42;12.30;99.90
44069;DHT22;29738;51.234;5.484;2022-10-31T07:55:08;12.40;99.90
44069;DHT22;29738;51.234;5.484;2022-10-31T07:57:35;12.60;99.90
44069;DHT22;29738;51.234;5.484;2022-10-31T08:00:06;12.70;99.90
44069;DHT22;29738;51.234;5.484;2022-10-31T08:02:33;12.80;99.90
44069;DHT22;29738;51.234;5.484;2022-10-31T08:04:59;12.80;99.90
44069;DHT22;29738;51.234;5.484;2022-10-31T08:07:25;12.70;99.90
44069;DHT22;29738;51.234;5.484;2022-10-31T08:09:52;12.40;99.90
44069;DHT22;29738;51.234;5.484;2022-10-31T08:12:18;12.10;99.90
44069;DHT22;29738;51.234;5.484;2022-10-31T08:14:43;12.00;99.90
44069;DHT22;29738;51.234;5.484;2022-10-31T08:17:10;12.20;99.90
44069;DHT22;29738;51.234;5.484;2022-10-31T08:19:36;12.50;99.90
44069;DHT22;29738;51.234;5.484;2022-10-31T08:22:02;12.70;99.90
44069;DHT22;29738;51.234;5.484;2022-10-31T08:24:27;12.80;99.90
44069;DHT22;29738;51.234;5.484;2022-10-31T08:26:53;13.00;99.90
44069;DHT22;29738;51.234;5.484;2022-10-31T08:29:19;13.10;99.90
44069;DHT22;29738;51.234;5.484;2022-10-31T08:31:45;13.10;99.90
44069;DHT22;29738;51.234;5.484;2022-10-31T08:34:11;13.10;99.90
44069;DHT22;29738;51.234;5.484;2022-10-31T08:36:36;13.00;99.90
44069;DHT22;29738;51.234;5.484;2022-10-31T08:39:02;13.10;99.90
44069;DHT22;29738;51.234;5.484;2022-10-31T08:41:29;13.20;99.90
44069;DHT22;29738;51.234;5.484;2022-10-31T08:43:55;13.30;99.90
44069;DHT22;29738;51.234;5.484;2022-10-31T08:46:20;13.40;99.90
44069;DHT22;29738;51.234;5.484;2022-10-31T08:48:50;13.50;99.90
44069;DHT22;29738;51.234;5.484;2022-10-31T08:51:16;13.40;99.90
44069;DHT22;29738;51.234;5.484;2022-10-31T08:53:41;13.50;99.90
44069;DHT22;29738;51.234;5.484;2022-10-31T08:56:07;13.60;99.90
44069;DHT22;29738;51.234;5.484;2022-10-31T08:58:33;13.50;99.90
44069;DHT22;29738;51.234;5.484;2022-10-31T09:01:00;13.90;99.90
44069;DHT22;29738;51.234;5.484;2022-10-31T09:03:29;14.10;99.90
44069;DHT22;29738;51.234;5.484;2022-10-31T09:05:58;14.30;99.90
44069;DHT22;29738;51.234;5.484;2022-10-31T09:08:24;14.30;99.90
44069;DHT22;29738;51.234;5.484;2022-10-31T09:10:50;14.40;99.90
44069;DHT22;29738;51.234;5.484;2022-10-31T09:13:18;14.60;99.90
44069;DHT22;29738;51.234;5.484;2022-10-31T09:15:45;14.90;99.90
44069;DHT22;29738;51.234;5.484;2022-10-31T09:18:13;14.90;99.90
44069;DHT22;29738;51.234;5.484;2022-10-31T09:20:41;14.80;99.90
44069;DHT22;29738;51.234;5.484;2022-10-31T09:23:11;14.70;99.90
44069;DHT22;29738;51.234;5.484;2022-10-31T09:25:37;14.60;99.90
44069;DHT22;29738;51.234;5.484;2022-10-31T09:28:05;14.50;99.90
44069;DHT22;29738;51.234;5.484;2022-10-31T09:30:32;14.50;99.90
44069;DHT22;29738;51.234;5.484;2022-10-31T09:33:01;14.40;99.90
44069;DHT22;29738;51.234;5.484;2022-10-31T09:35:27;14.40;99.90
44069;DHT22;29738;51.234;5.484;2022-10-31T09:38:01;14.50;99.90
44069;DHT22;29738;51.234;5.484;2022-10-31T09:41:18;14.40;99.90
44069;DHT22;29738;51.234;5.484;2022-10-31T09:43:39;14.50;99.90
44069;DHT22;29738;51.234;5.484;2022-10-31T09:51:34;15.00;99.90
44069;DHT22;29738;51.234;5.484;2022-10-31T09:54:30;15.10;99.90
44069;DHT22;29738;51.234;5.484;2022-10-31T09:56:58;15.20;99.90
44069;DHT22;29738;51.234;5.484;2022-10-31T09:59:35;15.00;99.90
44069;DHT22;29738;51.234;5.484;2022-10-31T10:05:12;14.90;99.90
44069;DHT22;29738;51.234;5.484;2022-10-31T10:08:01;14.80;99.90
44069;DHT22;29738;51.234;5.484;2022-10-31T10:13:41;14.90;99.90
44069;DHT22;29738;51.234;5.484;2022-10-31T10:27:46;15.00;99.90
44069;DHT22;29738;51.234;5.484;2022-10-31T10:30:13;15.10;99.90
44069;DHT22;29738;51.234;5.484;2022-10-31T10:32:45;15.20;99.90
44069;DHT22;29738;51.234;5.484;2022-10-31T10:36:03;15.50;99.90
44069;DHT22;29738;51.234;5.484;2022-10-31T10:38:19;15.60;99.90
44069;DHT22;29738;51.234;5.484;2022-10-31T10:40:48;15.70;99.90
44069;DHT22;29738;51.234;5.484;2022-10-31T10:43:24;15.90;99.90
44069;DHT22;29738;51.234;5.484;2022-10-31T10:49:17;16.20;99.90
44069;DHT22;29738;51.234;5.484;2022-10-31T10:51:54;16.30;99.90
44069;DHT22;29738;51.234;5.484;2022-10-31T11:00:10;16.40;99.90
44069;DHT22;29738;51.234;5.484;2022-10-31T11:02:36;16.40;99.90
44069;DHT22;29738;51.234;5.484;2022-10-31T11:05:03;16.50;99.90
44069;DHT22;29738;51.234;5.484;2022-10-31T11:07:39;16.50;99.90
44069;DHT22;29738;51.234;5.484;2022-10-31T11:10:11;16.50;99.90
44069;DHT22;29738;51.234;5.484;2022-10-31T11:12:39;16.40;99.90
44069;DHT22;29738;51.234;5.484;2022-10-31T11:15:20;16.40;99.90
44069;DHT22;29738;51.234;5.484;2022-10-31T11:17:49;16.50;99.90
44069;DHT22;29738;51.234;5.484;2022-10-31T11:22:43;16.90;99.90
44069;DHT22;29738;51.234;5.484;2022-10-31T11:25:28;17.40;99.90
44069;DHT22;29738;51.234;5.484;2022-10-31T11:28:01;17.50;99.90
44069;DHT22;29738;51.234;5.484;2022-10-31T11:30:28;17.40;99.90
44069;DHT22;29738;51.234;5.484;2022-10-31T11:32:54;17.50;99.90
44069;DHT22;29738;51.234;5.484;2022-10-31T11:35:21;17.50;99.90
44069;DHT22;29738;51.234;5.484;2022-10-31T11:37:49;17.30;99.90
44069;DHT22;29738;51.234;5.484;2022-10-31T11:40:19;17.20;99.90
44069;DHT22;29738;51.234;5.484;2022-10-31T11:42:46;17.00;99.90
44069;DHT22;29738;51.234;5.484;2022-10-31T11:45:18;16.90;99.90
44069;DHT22;29738;51.234;5.484;2022-10-31T11:47:54;16.80;99.90
44069;DHT22;29738;51.234;5.484;2022-10-31T11:50:34;16.70;99.90
44069;DHT22;29738;51.234;5.484;2022-10-31T11:53:02;16.80;99.90
44069;DHT22;29738;51.234;5.484;2022-10-31T11:55:35;16.90;99.90
44069;DHT22;29738;51.234;5.484;2022-10-31T11:58:02;16.90;99.90
44069;DHT22;29738;51.234;5.484;2022-10-31T12:00:32;17.00;99.90
44069;DHT22;29738;51.234;5.484;2022-10-31T12:08:25;17.40;99.90
44069;DHT22;29738;51.234;5.484;2022-10-31T12:11:27;17.70;99.90
44069;DHT22;29738;51.234;5.484;2022-10-31T12:16:44;17.50;99.90
44069;DHT22;29738;51.234;5.484;2022-10-31T12:30:20;17.50;99.90
44069;DHT22;29738;51.234;5.484;2022-10-31T12:35:30;17.20;99.90
44069;DHT22;29738;51.234;5.484;2022-10-31T12:38:18;17.10;99.90
44069;DHT22;29738;51.234;5.484;2022-10-31T12:41:02;17.10;99.90
44069;DHT22;29738;51.234;5.484;2022-10-31T12:46:41;17.00;99.90
44069;DHT22;29738;51.234;5.484;2022-10-31T12:49:43;17.10;99.90
44069;DHT22;29738;51.234;5.484;2022-10-31T12:55:08;16.90;99.90
44069;DHT22;29738;51.234;5.484;2022-10-31T12:57:36;16.90;99.90
44069;DHT22;29738;51.234;5.484;2022-10-31T13:00:15;16.90;99.90
44069;DHT22;29738;51.234;5.484;2022-10-31T13:02:52;16.80;99.90
44069;DHT22;29738;51.234;5.484;2022-10-31T13:05:33;16.90;99.90
44069;DHT22;29738;51.234;5.484;2022-10-31T13:08:14;16.90;99.90
44069;DHT22;29738;51.234;5.484;2022-10-31T13:10:59;16.90;99.90
44069;DHT22;29738;51.234;5.484;2022-10-31T13:13:38;16.80;99.90
44069;DHT22;29738;51.234;5.484;2022-10-31T13:16:28;16.90;99.90
44069;DHT22;29738;51.234;5.484;2022-10-31T13:19:16;16.80;99.90
44069;DHT22;29738;51.234;5.484;2022-10-31T13:24:34;16.70;99.90
44069;DHT22;29738;51.234;5.484;2022-10-31T13:27:07;16.80;99.90
44069;DHT22;29738;51.234;5.484;2022-10-31T13:29:42;16.70;99.90
44069;DHT22;29738;51.234;5.484;2022-10-31T13:32:10;16.80;99.90
44069;DHT22;29738;51.234;5.484;2022-10-31T13:34:42;16.80;99.90
44069;DHT22;29738;51.234;5.484;2022-10-31T13:45:54;16.90;99.90
44069;DHT22;29738;51.234;5.484;2022-10-31T13:51:03;17.00;99.90
44069;DHT22;29738;51.234;5.484;2022-10-31T13:58:34;17.10;99.90
44069;DHT22;29738;51.234;5.484;2022-10-31T14:03:43;17.30;99.90
44069;DHT22;29738;51.234;5.484;2022-10-31T14:06:11;17.50;99.90
44069;DHT22;29738;51.234;5.484;2022-10-31T14:08:41;17.80;99.90
44069;DHT22;29738;51.234;5.484;2022-10-31T14:11:09;17.80;99.90
44069;DHT22;29738;51.234;5.484;2022-10-31T14:13:45;17.70;99.90
44069;DHT22;29738;51.234;5.484;2022-10-31T14:16:18;17.50;99.90
44069;DHT22;29738;51.234;5.484;2022-10-31T14:19:13;17.40;99.90
44069;DHT22;29738;51.234;5.484;2022-10-31T14:21:46;17.50;99.90
44069;DHT22;29738;51.234;5.484;2022-10-31T14:26:57;17.70;99.90
44069;DHT22;29738;51.234;5.484;2022-10-31T14:29:30;17.80;99.90
44069;DHT22;29738;51.234;5.484;2022-10-31T14:31:58;17.80;99.90
44069;DHT22;29738;51.234;5.484;2022-10-31T14:34:37;17.80;99.90
44069;DHT22;29738;51.234;5.484;2022-10-31T14:40:24;18.00;99.90
44069;DHT22;29738;51.234;5.484;2022-10-31T14:46:23;17.90;99.90
44069;DHT22;29738;51.234;5.484;2022-10-31T14:51:47;17.80;99.90
44069;DHT22;29738;51.234;5.484;2022-10-31T14:54:38;17.70;99.90
44069;DHT22;29738;51.234;5.484;2022-10-31T14:57:21;17.50;99.90
44069;DHT22;29738;51.234;5.484;2022-10-31T14:59:57;17.50;99.90
44069;DHT22;29738;51.234;5.484;2022-10-31T15:02:41;17.40;99.90
44069;DHT22;29738;51.234;5.484;2022-10-31T15:05:10;17.40;99.90
44069;DHT22;29738;51.234;5.484;2022-10-31T15:07:36;17.40;99.90
44069;DHT22;29738;51.234;5.484;2022-10-31T15:10:25;17.30;99.90
44069;DHT22;29738;51.234;5.484;2022-10-31T15:12:52;17.30;99.90
44069;DHT22;29738;51.234;5.484;2022-10-31T15:15:26;17.40;99.90
44069;DHT22;29738;51.234;5.484;2022-10-31T15:17:59;17.30;99.90
44069;DHT22;29738;51.234;5.484;2022-10-31T15:20:27;17.20;99.90
44069;DHT22;29738;51.234;5.484;2022-10-31T15:22:57;17.10;99.90
44069;DHT22;29738;51.234;5.484;2022-10-31T15:25:28;17.10;99.90
44069;DHT22;29738;51.234;5.484;2022-10-31T15:27:55;17.10;99.90
44069;DHT22;29738;51.234;5.484;2022-10-31T15:30:22;17.30;99.90
44069;DHT22;29738;51.234;5.484;2022-10-31T15:32:48;17.40;99.90
44069;DHT22;29738;51.234;5.484;2022-10-31T15:35:30;17.20;99.90
44069;DHT22;29738;51.234;5.484;2022-10-31T15:37:56;17.10;99.90
44069;DHT22;29738;51.234;5.484;2022-10-31T15:40:24;17.10;99.90
44069;DHT22;29738;51.234;5.484;2022-10-31T15:42:59;17.20;99.90
44069;DHT22;29738;51.234;5.484;2022-10-31T15:45:27;17.20;99.90
44069;DHT22;29738;51.234;5.484;2022-10-31T15:48:12;17.30;99.90
44069;DHT22;29738;51.234;5.484;2022-10-31T15:50:41;17.30;99.90
44069;DHT22;29738;51.234;5.484;2022-10-31T15:53:29;17.20;99.90
44069;DHT22;29738;51.234;5.484;2022-10-31T15:56:00;17.10;99.90
44069;DHT22;29738;51.234;5.484;2022-10-31T15:58:26;17.10;99.90
44069;DHT22;29738;51.234;5.484;2022-10-31T16:03:29;17.10;99.90
44069;DHT22;29738;51.234;5.484;2022-10-31T16:05:57;17.00;99.90
44069;DHT22;29738;51.234;5.484;2022-10-31T16:10:53;17.00;99.90
44069;DHT22;29738;51.234;5.484;2022-10-31T16:13:25;17.00;99.90
44069;DHT22;29738;51.234;5.484;2022-10-31T16:15:56;17.00;99.90
44069;DHT22;29738;51.234;5.484;2022-10-31T16:18:24;17.10;99.90
44069;DHT22;29738;51.234;5.484;2022-10-31T16:20:52;17.10;99.90
44069;DHT22;29738;51.234;5.484;2022-10-31T16:23:19;17.10;99.90
44069;DHT22;29738;51.234;5.484;2022-10-31T16:25:46;17.10;99.90
44069;DHT22;29738;51.234;5.484;2022-10-31T16:28:16;17.10;99.90
44069;DHT22;29738;51.234;5.484;2022-10-31T16:30:47;17.10;99.90
44069;DHT22;29738;51.234;5.484;2022-10-31T16:33:36;17.20;99.90
44069;DHT22;29738;51.234;5.484;2022-10-31T16:38:56;17.10;99.90
44069;DHT22;29738;51.234;5.484;2022-10-31T16:41:23;16.90;99.90
44069;DHT22;29738;51.234;5.484;2022-10-31T16:43:49;17.00;99.90
44069;DHT22;29738;51.234;5.484;2022-10-31T16:46:22;17.00;99.90
44069;DHT22;29738;51.234;5.484;2022-10-31T16:48:48;16.90;99.90
44069;DHT22;29738;51.234;5.484;2022-10-31T16:51:14;16.70;99.90
44069;DHT22;29738;51.234;5.484;2022-10-31T16:53:39;16.80;99.90
44069;DHT22;29738;51.234;5.484;2022-10-31T16:56:15;16.80;99.90
44069;DHT22;29738;51.234;5.484;2022-10-31T16:58:41;16.60;99.90
44069;DHT22;29738;51.234;5.484;2022-10-31T17:01:08;16.50;99.90
44069;DHT22;29738;51.234;5.484;2022-10-31T17:03:35;16.70;99.90
44069;DHT22;29738;51.234;5.484;2022-10-31T17:06:01;16.70;99.90
44069;DHT22;29738;51.234;5.484;2022-10-31T17:08:26;16.70;99.90
44069;DHT22;29738;51.234;5.484;2022-10-31T17:10:54;16.60;99.90
44069;DHT22;29738;51.234;5.484;2022-10-31T17:13:23;16.70;99.90
44069;DHT22;29738;51.234;5.484;2022-10-31T17:15:52;16.70;99.90
44069;DHT22;29738;51.234;5.484;2022-10-31T17:18:19;16.60;99.90
44069;DHT22;29738;51.234;5.484;2022-10-31T17:20:45;16.30;99.90
44069;DHT22;29738;51.234;5.484;2022-10-31T17:23:13;16.20;99.90
44069;DHT22;29738;51.234;5.484;2022-10-31T17:25:40;16.20;99.90
44069;DHT22;29738;51.234;5.484;2022-10-31T17:28:07;16.00;99.90
44069;DHT22;29738;51.234;5.484;2022-10-31T17:30:36;15.90;99.90
44069;DHT22;29738;51.234;5.484;2022-10-31T17:33:03;15.90;99.90
44069;DHT22;29738;51.234;5.484;2022-10-31T17:35:28;16.00;99.90
44069;DHT22;29738;51.234;5.484;2022-10-31T17:37:54;16.10;99.90
44069;DHT22;29738;51.234;5.484;2022-10-31T17:40:20;16.30;99.90
44069;DHT22;29738;51.234;5.484;2022-10-31T17:42:54;16.30;99.90
44069;DHT22;29738;51.234;5.484;2022-10-31T17:45:21;16.20;99.90